Time;durP1;ratioP1;P1;durP2;ratioP2;P2;SDS_P1;SDS_P2;PMS_P1;PMS_P2;Temp;Humidity;BMP_temperature;BMP_pressure;BME280_temperature;BME280_humidity;BME280_pressure;Samples;Min_cycle;Max_cycle;Signal;HPM_P1;HPM_P2
2021/05/24 00:03:09;;;;;;;2.00;1.52;;;;;;;8.84;100.00;98431.52;3636026;80;45141;-21
2021/05/24 00:08:15;;;;;;;1.98;1.20;;;;;;;8.84;100.00;98418.09;3639642;80;43279;-20
2021/05/24 00:13:22;;;;;;;2.70;1.20;;;;;;;8.82;100.00;98408.50;3658220;79;44190;-21
2021/05/24 00:18:28;;;;;;;2.45;1.50;;;;;;;8.78;100.00;98411.96;3700002;80;43387;-21
2021/05/24 00:23:34;;;;;;;1.60;1.20;;;;;;;8.69;100.00;98415.07;3718068;78;44089;-21
2021/05/24 00:28:41;;;;;;;1.35;1.10;;;;;;;8.64;100.00;98410.12;3658216;78;43448;-22
2021/05/24 00:33:47;;;;;;;1.45;1.30;;;;;;;8.63;100.00;98411.14;3698640;80;44071;-21
2021/05/24 00:38:53;;;;;;;1.70;1.33;;;;;;;8.66;100.00;98410.47;3724016;77;43192;-21
2021/05/24 00:43:58;;;;;;;1.47;1.30;;;;;;;8.60;100.00;98412.77;3648519;79;43443;-21
2021/05/24 00:49:05;;;;;;;2.92;1.20;;;;;;;8.59;100.00;98404.37;3697519;80;43957;-21
2021/05/24 00:54:11;;;;;;;1.42;1.32;;;;;;;8.54;100.00;98405.30;3737797;77;43086;-21
2021/05/24 00:59:17;;;;;;;1.62;1.30;;;;;;;8.42;100.00;98405.97;3717920;77;44090;-21
2021/05/24 01:04:23;;;;;;;2.17;1.25;;;;;;;8.38;100.00;98397.86;3689031;80;43992;-21
2021/05/24 01:09:30;;;;;;;2.58;1.40;;;;;;;8.29;100.00;98399.58;3743704;77;43632;-20
2021/05/24 01:14:36;;;;;;;2.25;1.37;;;;;;;8.20;100.00;98391.58;3657926;80;43736;-21
2021/05/24 01:19:47;;;;;;;2.33;1.32;;;;;;;8.25;100.00;98392.83;3732797;79;43474;-21
2021/05/24 01:24:52;;;;;;;1.45;1.30;;;;;;;8.22;100.00;98380.20;3654441;80;43235;-21
2021/05/24 01:29:59;;;;;;;2.08;1.37;;;;;;;8.12;100.00;98381.06;3723533;79;43361;-22
2021/05/24 01:35:07;;;;;;;1.52;1.30;;;;;;;8.10;100.00;98374.16;3728854;77;43463;-22
2021/05/24 01:40:16;;;;;;;2.20;1.25;;;;;;;8.04;100.00;98370.23;3726074;78;43715;-22
2021/05/24 01:45:22;;;;;;;2.77;1.50;;;;;;;7.90;100.00;98363.50;3721247;77;44345;-22
2021/05/24 01:50:29;;;;;;;1.77;1.50;;;;;;;7.90;100.00;98358.14;3644656;80;44043;-22
2021/05/24 01:55:35;;;;;;;2.67;1.57;;;;;;;7.89;100.00;98352.42;3718440;78;44248;-22
2021/05/24 02:00:41;;;;;;;3.00;1.98;;;;;;;7.85;100.00;98338.47;3713869;79;43748;-21
2021/05/24 02:05:48;;;;;;;3.25;1.70;;;;;;;7.84;100.00;98331.41;3719354;77;44028;-22
2021/05/24 02:10:54;;;;;;;2.30;1.42;;;;;;;7.85;100.00;98330.89;3712533;79;43591;-21
2021/05/24 02:16:00;;;;;;;1.60;1.40;;;;;;;7.80;100.00;98329.16;3686258;78;44124;-21
2021/05/24 02:21:08;;;;;;;2.35;1.30;;;;;;;7.79;100.00;98334.17;3690284;78;43677;-21
2021/05/24 02:26:14;;;;;;;1.50;1.40;;;;;;;7.74;100.00;98337.78;3684725;79;44054;-21
2021/05/24 02:31:20;;;;;;;1.70;1.57;;;;;;;7.71;100.00;98342.95;3674535;79;43767;-20
2021/05/24 02:36:27;;;;;;;3.45;1.50;;;;;;;7.71;100.00;98342.44;3680724;78;44042;-20
2021/05/24 02:41:32;;;;;;;2.55;1.40;;;;;;;7.69;100.00;98340.90;3684561;78;43505;-21
2021/05/24 02:46:38;;;;;;;1.77;1.50;;;;;;;7.69;100.00;98345.78;3698473;78;44839;-21
2021/05/24 02:51:44;;;;;;;2.67;1.47;;;;;;;7.64;100.00;98327.92;3683597;78;43407;-21
2021/05/24 02:56:50;;;;;;;3.10;1.55;;;;;;;7.60;100.00;98317.13;3716048;78;43396;-21
2021/05/24 03:01:56;;;;;;;2.25;1.57;;;;;;;7.58;100.00;98316.94;3709878;79;43281;-21
2021/05/24 03:07:02;;;;;;;1.82;1.50;;;;;;;7.51;100.00;98316.19;3711261;79;44789;-21
2021/05/24 03:12:10;;;;;;;3.35;1.55;;;;;;;7.50;100.00;98318.52;3695914;78;44114;-21
2021/05/24 03:17:15;;;;;;;2.77;1.55;;;;;;;7.40;100.00;98319.86;3614854;80;43432;-21
2021/05/24 03:22:21;;;;;;;2.27;1.60;;;;;;;7.40;100.00;98323.05;3611064;80;43395;-21
2021/05/24 03:27:28;;;;;;;2.22;1.52;;;;;;;7.36;100.00;98311.75;3555243;82;43439;-20
2021/05/24 03:32:35;;;;;;;2.60;1.40;;;;;;;7.43;100.00;98305.83;3634117;81;43698;-21
2021/05/24 03:37:41;;;;;;;3.00;1.37;;;;;;;7.42;100.00;98313.01;3603921;81;44075;-21
2021/05/24 03:42:47;;;;;;;1.80;1.30;;;;;;;7.36;100.00;98299.69;3600006;80;44069;-21
2021/05/24 03:47:54;;;;;;;1.60;1.50;;;;;;;7.35;100.00;98299.33;3599967;81;42886;-22
2021/05/24 03:53:00;;;;;;;2.67;1.45;;;;;;;7.34;100.00;98304.38;3604160;80;43433;-20
2021/05/24 03:58:06;;;;;;;1.97;1.30;;;;;;;7.31;100.00;98305.12;3606686;81;44083;-21
2021/05/24 04:03:12;;;;;;;1.45;1.35;;;;;;;7.29;100.00;98297.24;3662119;79;43998;-20
2021/05/24 04:08:19;;;;;;;2.45;1.60;;;;;;;7.29;100.00;98299.09;3601650;81;44002;-22
2021/05/24 04:13:25;;;;;;;2.80;1.53;;;;;;;7.29;100.00;98297.75;3622509;80;43717;-21
2021/05/24 04:18:34;;;;;;;1.70;1.37;;;;;;;7.31;100.00;98297.09;3673996;79;44464;-19
2021/05/24 04:23:41;;;;;;;2.75;1.47;;;;;;;7.35;100.00;98315.92;3691953;78;44728;-19
2021/05/24 04:28:47;;;;;;;1.85;1.60;;;;;;;7.37;100.00;98309.42;3669277;79;44849;-22
2021/05/24 04:33:53;;;;;;;1.47;1.37;;;;;;;7.48;100.00;98312.92;3675257;79;44553;-22
2021/05/24 04:39:00;;;;;;;1.82;1.30;;;;;;;7.57;100.00;98304.04;3663457;79;42989;-23
2021/05/24 04:44:17;;;;;;;3.10;1.33;;;;;;;7.68;100.00;98305.20;3692942;79;43321;-22
2021/05/24 04:49:19;;;;;;;2.12;1.50;;;;;;;7.80;100.00;98303.69;3688599;78;43081;-20
2021/05/24 04:54:26;;;;;;;1.50;1.40;;;;;;;7.92;100.00;98305.20;3688654;78;44808;-20
2021/05/24 04:59:32;;;;;;;2.42;1.30;;;;;;;7.99;100.00;98302.26;3694702;79;44041;-21
2021/05/24 05:04:38;;;;;;;2.50;1.30;;;;;;;8.12;100.00;98297.05;3711593;79;43050;-21
2021/05/24 05:09:44;;;;;;;2.37;1.30;;;;;;;8.25;100.00;98288.16;3702373;79;44045;-21
2021/05/24 05:14:49;;;;;;;2.65;1.25;;;;;;;8.37;100.00;98288.78;3692197;78;43348;-21
2021/05/24 05:19:56;;;;;;;1.87;1.50;;;;;;;8.59;100.00;98294.27;3668028;80;44126;-21
2021/05/24 05:25:02;;;;;;;1.70;1.22;;;;;;;8.76;100.00;98296.62;3558259;81;44049;-21
2021/05/24 05:30:10;;;;;;;2.12;1.30;;;;;;;8.86;100.00;98293.01;3610330;80;44216;-21
2021/05/24 05:35:18;;;;;;;3.30;1.47;;;;;;;9.02;100.00;98300.37;3634863;81;44371;-21
2021/05/24 05:40:25;;;;;;;2.30;1.40;;;;;;;9.21;100.00;98285.92;3596122;81;44179;-21
2021/05/24 05:45:31;;;;;;;2.40;1.40;;;;;;;9.56;100.00;98293.08;3602874;81;43713;-21
2021/05/24 05:50:37;;;;;;;3.17;1.20;;;;;;;9.68;100.00;98290.95;3606331;80;43725;-22
2021/05/24 05:55:44;;;;;;;4.10;1.22;;;;;;;10.02;100.00;98281.22;3663756;79;44444;-22
2021/05/24 06:00:50;;;;;;;3.77;1.20;;;;;;;10.20;100.00;98274.88;3608037;80;43669;-22
2021/05/24 06:05:56;;;;;;;2.60;1.70;;;;;;;10.48;100.00;98282.23;3660823;80;42893;-21
2021/05/24 06:11:02;;;;;;;2.37;1.10;;;;;;;10.70;100.00;98280.78;3602128;81;44105;-22
2021/05/24 06:16:09;;;;;;;1.95;1.10;;;;;;;10.89;100.00;98266.65;3622469;80;43076;-21
2021/05/24 06:21:17;;;;;;;2.25;1.00;;;;;;;11.12;100.00;98265.98;3705643;79;42381;-22
2021/05/24 06:26:23;;;;;;;1.35;0.90;;;;;;;11.30;100.00;98252.33;3713373;77;43586;-23
2021/05/24 06:31:30;;;;;;;1.25;0.95;;;;;;;11.43;100.00;98250.47;3699821;77;43993;-21
2021/05/24 06:36:37;;;;;;;1.82;0.90;;;;;;;11.43;100.00;98255.34;3631797;80;43723;-21
2021/05/24 06:41:44;;;;;;;1.70;0.88;;;;;;;11.70;100.00;98254.10;3728578;78;43441;-21
2021/05/24 06:46:50;;;;;;;1.20;0.80;;;;;;;11.77;100.00;98260.17;3730808;78;44051;-21
2021/05/24 06:51:57;;;;;;;1.10;0.80;;;;;;;12.29;99.22;98248.02;3737189;77;43690;-21
2021/05/24 06:57:04;;;;;;;1.70;1.02;;;;;;;12.49;100.00;98250.60;3725555;77;43373;-22
2021/05/24 07:02:11;;;;;;;1.00;0.80;;;;;;;12.52;100.00;98246.73;3752315;77;44006;-22
2021/05/24 07:07:17;;;;;;;0.95;0.78;;;;;;;12.67;98.26;98240.03;3751603;77;43698;-22
2021/05/24 07:12:23;;;;;;;1.00;0.75;;;;;;;12.68;94.65;98237.67;3699009;79;43681;-22
2021/05/24 07:17:30;;;;;;;2.52;1.32;;;;;;;12.84;97.44;98225.03;3693052;79;43309;-22
2021/05/24 07:22:37;;;;;;;2.20;0.80;;;;;;;12.94;95.39;98226.98;3739567;78;44763;-22
2021/05/24 07:27:43;;;;;;;1.12;0.70;;;;;;;13.03;92.03;98212.39;3729691;77;44029;-22
2021/05/24 07:32:49;;;;;;;0.90;0.70;;;;;;;13.24;90.95;98223.02;3639667;80;44169;-22
2021/05/24 07:37:55;;;;;;;0.95;0.75;;;;;;;13.45;86.73;98207.47;3673793;80;44147;-22
2021/05/24 07:43:01;;;;;;;0.68;0.68;;;;;;;13.75;85.75;98199.34;3675897;80;43124;-22
2021/05/24 07:48:09;;;;;;;1.75;0.80;;;;;;;13.99;87.87;98190.59;3676323;80;43127;-21
2021/05/24 07:53:15;;;;;;;1.77;1.00;;;;;;;14.17;84.01;98190.19;3633813;81;43491;-22
2021/05/24 07:58:20;;;;;;;0.90;0.70;;;;;;;14.32;84.88;98179.30;3695802;79;43475;-23
2021/05/24 08:03:27;;;;;;;1.92;0.72;;;;;;;14.48;80.51;98165.52;3729647;77;43716;-22
2021/05/24 08:08:33;;;;;;;1.55;0.78;;;;;;;14.59;77.66;98168.75;3724324;77;44026;-22
2021/05/24 08:13:39;;;;;;;1.05;0.70;;;;;;;14.87;82.73;98162.58;3648226;79;44475;-22
2021/05/24 08:18:45;;;;;;;1.90;0.70;;;;;;;15.11;79.51;98168.08;3658776;79;43424;-22
2021/05/24 08:23:51;;;;;;;0.68;0.60;;;;;;;15.43;77.82;98164.97;3717699;77;44076;-22
2021/05/24 08:28:57;;;;;;;1.65;0.70;;;;;;;15.51;71.43;98164.80;3689411;79;43431;-21
2021/05/24 08:34:04;;;;;;;0.70;0.57;;;;;;;15.67;72.34;98154.13;3741311;77;44230;-21
2021/05/24 08:39:10;;;;;;;1.40;0.60;;;;;;;15.77;75.57;98142.91;3751609;77;43721;-23
2021/05/24 08:44:18;;;;;;;1.50;0.50;;;;;;;15.97;69.31;98137.06;3751174;77;43065;-22
2021/05/24 08:49:27;;;;;;;1.05;0.85;;;;;;;15.93;61.92;98128.17;3668186;79;43279;-22
2021/05/24 08:54:37;;;;;;;1.25;0.60;;;;;;;15.67;58.83;98129.19;3725107;78;43258;-22
2021/05/24 08:59:44;;;;;;;1.20;0.60;;;;;;;15.89;62.51;98119.59;3723347;79;43984;-22
2021/05/24 09:04:51;;;;;;;0.80;0.57;;;;;;;16.18;58.35;98112.14;3724978;77;43424;-22
2021/05/24 09:10:01;;;;;;;0.95;0.50;;;;;;;16.27;56.38;98101.42;3672003;79;44105;-23
2021/05/24 09:15:12;;;;;;;1.12;0.50;;;;;;;16.35;57.15;98107.70;3749897;77;44069;-22
2021/05/24 09:20:29;;;;;;;0.72;0.50;;;;;;;16.23;53.93;98090.64;3745924;77;43718;-22
2021/05/24 09:26:06;;;;;;;2.05;0.60;;;;;;;16.35;54.77;98085.41;3671200;79;43018;-22
2021/05/24 09:31:15;;;;;;;0.72;0.50;;;;;;;16.60;58.87;98070.70;3698529;78;43343;-23
2021/05/24 09:36:22;;;;;;;0.93;0.50;;;;;;;16.83;55.77;98059.92;3632043;80;43709;-22
2021/05/24 09:41:30;;;;;;;0.82;0.57;;;;;;;17.10;58.20;98044.41;3678752;80;44062;-22
2021/05/24 09:46:37;;;;;;;1.32;0.70;;;;;;;17.32;57.95;98035.97;3676772;79;43577;-23
2021/05/24 09:51:46;;;;;;;1.37;0.40;;;;;;;17.56;52.37;98026.77;3675369;80;43436;-22
2021/05/24 09:56:53;;;;;;;0.62;0.60;;;;;;;17.48;49.95;98026.48;3631229;80;44023;-22
2021/05/24 10:02:01;;;;;;;1.47;0.60;;;;;;;17.64;52.95;98014.80;3719660;78;44474;-22
2021/05/24 10:07:06;;;;;;;1.10;0.62;;;;;;;17.77;54.20;97994.81;3650281;80;43474;-22
2021/05/24 10:12:16;;;;;;;1.12;0.50;;;;;;;17.95;56.73;97986.75;3694966;79;44026;-21
2021/05/24 10:17:20;;;;;;;0.40;0.40;;;;;;;18.10;52.92;97974.20;3711950;77;44075;-22
2021/05/24 10:22:27;;;;;;;0.47;0.47;;;;;;;18.22;53.09;97969.39;3643092;79;43730;-22
2021/05/24 10:27:34;;;;;;;0.62;0.57;;;;;;;18.22;52.17;97948.94;3688253;79;44505;-22
2021/05/24 10:32:55;;;;;;;0.70;0.33;;;;;;;18.40;51.66;97939.46;3736681;78;44154;-22
2021/05/24 10:38:02;;;;;;;0.82;0.78;;;;;;;18.43;47.15;97920.44;3640338;80;44095;-22
2021/05/24 10:43:11;;;;;;;0.90;0.50;;;;;;;18.47;51.61;97918.91;3686489;79;43668;-22
2021/05/24 10:48:26;;;;;;;0.60;0.50;;;;;;;18.85;47.55;97919.80;3637395;80;43081;-22
2021/05/24 10:53:34;;;;;;;1.80;0.50;;;;;;;19.01;48.06;97909.65;3740362;78;44009;-22
2021/05/24 10:58:42;;;;;;;0.98;0.40;;;;;;;19.15;51.47;97913.58;3743840;78;44017;-22
2021/05/24 11:04:12;;;;;;;1.60;0.40;;;;;;;19.40;50.12;97893.81;3739076;78;44030;-22
2021/05/24 11:09:18;;;;;;;1.00;0.40;;;;;;;19.65;42.32;97912.48;3735782;78;44077;-22
2021/05/24 11:14:24;;;;;;;0.80;0.40;;;;;;;19.78;46.39;97907.36;3737332;77;42707;-24
2021/05/24 11:19:31;;;;;;;2.42;0.75;;;;;;;19.76;43.66;97904.02;3760294;77;44094;-24
2021/05/24 11:24:40;;;;;;;1.22;0.60;;;;;;;19.93;44.60;97891.91;3672120;78;43682;-24
2021/05/24 11:29:49;;;;;;;2.55;0.42;;;;;;;20.10;41.26;97886.06;3671591;80;43452;-24
2021/05/24 11:34:55;;;;;;;0.80;0.40;;;;;;;20.13;40.14;97884.75;3669006;79;44492;-24
2021/05/24 11:40:02;;;;;;;0.55;0.40;;;;;;;20.30;42.89;97872.02;3669450;80;44126;-24
2021/05/24 11:45:18;;;;;;;0.90;0.40;;;;;;;20.59;42.68;97872.65;3598445;80;44625;-25
2021/05/24 11:50:26;;;;;;;0.62;0.40;;;;;;;20.77;42.39;97852.53;3702787;79;43404;-26
2021/05/24 11:55:32;;;;;;;0.60;0.50;;;;;;;21.06;40.24;97853.41;3727874;77;44079;-24
2021/05/24 12:00:44;;;;;;;1.40;0.50;;;;;;;21.15;42.64;97842.08;3649092;80;44056;-25
2021/05/24 12:05:50;;;;;;;0.80;0.50;;;;;;;20.83;41.24;97842.52;3742079;78;44549;-25
2021/05/24 12:11:01;;;;;;;0.65;0.42;;;;;;;20.93;42.14;97841.39;3646751;79;43486;-25
2021/05/24 12:16:09;;;;;;;1.72;0.40;;;;;;;21.15;42.12;97833.31;3698554;79;43357;-24
2021/05/24 12:21:16;;;;;;;0.60;0.50;;;;;;;21.60;41.03;97816.62;3739714;77;42852;-25
2021/05/24 12:26:23;;;;;;;2.08;0.40;;;;;;;21.24;40.38;97809.92;3643528;79;43803;-23
2021/05/24 12:31:30;;;;;;;0.93;0.47;;;;;;;21.57;43.17;97801.19;3736516;79;43409;-23
2021/05/24 12:36:43;;;;;;;0.62;0.40;;;;;;;21.59;42.47;97788.04;3752921;78;44209;-23
2021/05/24 12:41:44;;;;;;;0.50;0.40;;;;;;;21.38;41.95;97778.95;3728448;78;43452;-23
2021/05/24 12:46:52;;;;;;;0.50;0.40;;;;;;;21.11;40.37;97758.18;3736639;78;44069;-23
2021/05/24 12:52:00;;;;;;;0.65;0.40;;;;;;;21.35;38.00;97753.41;3727792;77;44012;-24
2021/05/24 12:57:07;;;;;;;0.68;0.40;;;;;;;21.49;39.70;97752.54;3653332;79;43457;-24
2021/05/24 13:02:16;;;;;;;0.45;0.37;;;;;;;21.94;38.91;97755.44;3714959;79;43400;-24
2021/05/24 13:07:26;;;;;;;3.60;0.40;;;;;;;22.16;38.17;97745.37;3724619;78;43334;-22
2021/05/24 13:12:35;;;;;;;1.17;0.40;;;;;;;21.88;38.08;97740.02;3647500;80;44008;-22
2021/05/24 13:17:51;;;;;;;0.30;0.30;;;;;;;21.84;37.77;97733.66;3601507;80;44038;-23
2021/05/24 13:23:34;;;;;;;0.30;0.30;;;;;;;21.66;37.01;97717.48;3659346;79;44038;-23
2021/05/24 13:34:11;;;;;;;0.70;0.30;;;;;;;22.27;41.21;97709.27;3695038;78;44562;-23
2021/05/24 13:39:21;;;;;;;0.40;0.40;;;;;;;22.45;41.62;97677.97;3631086;81;44008;-23
2021/05/24 13:44:28;;;;;;;1.77;0.65;;;;;;;22.58;41.63;97685.52;3680138;80;44026;-24
2021/05/24 13:49:36;;;;;;;0.42;0.40;;;;;;;22.75;39.02;97685.42;3634673;81;42802;-23
2021/05/24 13:54:43;;;;;;;3.08;0.40;;;;;;;23.44;38.22;97672.05;3724814;77;43878;-24
2021/05/24 13:59:49;;;;;;;0.72;0.40;;;;;;;23.42;38.58;97672.30;3652683;80;43130;-23
2021/05/24 14:04:55;;;;;;;0.40;0.30;;;;;;;23.63;37.84;97657.34;3699992;79;44028;-23
2021/05/24 14:10:01;;;;;;;0.75;0.50;;;;;;;24.32;36.40;97647.24;3724247;78;44033;-23
2021/05/24 14:15:09;;;;;;;1.70;0.47;;;;;;;24.36;35.85;97650.27;3642882;79;44478;-23
2021/05/24 14:20:15;;;;;;;2.17;0.60;;;;;;;24.37;36.65;97647.23;3672221;79;43336;-23
2021/05/24 14:25:22;;;;;;;2.25;0.50;;;;;;;23.89;33.20;97638.20;3717853;79;43383;-23
2021/05/24 14:30:30;;;;;;;3.02;0.50;;;;;;;23.26;34.76;97643.88;3731519;77;43806;-25
2021/05/24 14:35:36;;;;;;;1.17;0.55;;;;;;;23.26;35.77;97627.38;3734484;77;44020;-24
2021/05/24 14:40:42;;;;;;;0.57;0.50;;;;;;;22.75;35.27;97616.77;3739230;78;43333;-24
2021/05/24 14:45:48;;;;;;;0.57;0.45;;;;;;;22.88;36.19;97614.98;3741285;79;43103;-24
2021/05/24 14:50:55;;;;;;;1.67;0.42;;;;;;;22.90;36.90;97610.58;3733952;78;44741;-24
2021/05/24 14:56:03;;;;;;;3.95;1.15;;;;;;;22.65;36.53;97609.26;3659766;80;44736;-23
2021/05/24 15:01:09;;;;;;;8.45;0.70;;;;;;;22.45;36.41;97603.86;3659249;79;44061;-23
2021/05/24 15:06:15;;;;;;;0.82;0.60;;;;;;;22.29;38.50;97600.11;3730331;77;43702;-24
2021/05/24 15:11:21;;;;;;;2.47;0.50;;;;;;;22.12;37.51;97593.34;3644627;79;44017;-24
2021/05/24 15:16:27;;;;;;;1.47;0.60;;;;;;;21.97;37.84;97584.92;3733733;78;43327;-24
2021/05/24 15:21:33;;;;;;;1.90;0.50;;;;;;;22.03;36.99;97586.66;3611703;80;43365;-24
2021/05/24 15:26:40;;;;;;;2.05;0.50;;;;;;;22.42;33.96;97578.30;3629432;81;43693;-24
2021/05/24 15:31:49;;;;;;;0.80;0.70;;;;;;;22.36;35.29;97577.95;3623511;80;44043;-24
2021/05/24 15:36:55;;;;;;;0.85;0.62;;;;;;;22.36;36.83;97572.98;3686035;79;43733;-24
2021/05/24 15:42:04;;;;;;;1.10;0.60;;;;;;;22.32;35.85;97578.17;3691135;78;43309;-24
2021/05/24 15:47:11;;;;;;;1.20;0.70;;;;;;;22.19;36.15;97572.56;3627025;80;44094;-24
2021/05/24 15:52:17;;;;;;;1.07;0.60;;;;;;;22.11;36.37;97564.24;3619600;80;43132;-24
2021/05/24 15:57:23;;;;;;;0.82;0.60;;;;;;;21.94;37.07;97563.48;3628215;81;44071;-24
2021/05/24 16:02:31;;;;;;;3.83;3.50;;;;;;;21.64;37.77;97567.52;3663129;80;44008;-24
2021/05/24 16:07:39;;;;;;;3.33;2.60;;;;;;;21.61;38.37;97561.17;3677269;78;44195;-24
2021/05/24 16:12:45;;;;;;;1.98;1.37;;;;;;;21.45;38.09;97557.38;3600872;81;43432;-25
2021/05/24 16:17:51;;;;;;;1.00;0.80;;;;;;;21.13;36.46;97567.06;3631023;80;43103;-24
2021/05/24 16:23:05;;;;;;;3.40;2.30;;;;;;;20.94;37.16;97560.48;3614109;80;44078;-25
2021/05/24 16:28:13;;;;;;;1.35;0.98;;;;;;;20.81;37.37;97557.27;3621787;80;42942;-24
2021/05/24 16:33:21;;;;;;;2.40;1.00;;;;;;;20.60;35.91;97561.83;3605404;81;26319;-24
2021/05/24 16:38:28;;;;;;;2.22;1.00;;;;;;;20.57;37.26;97573.27;3660431;80;44323;-24
2021/05/24 16:43:35;;;;;;;1.67;0.80;;;;;;;20.40;37.72;97564.22;3615238;80;43470;-24
2021/05/24 16:48:41;;;;;;;0.60;0.50;;;;;;;20.33;38.48;97565.19;3559463;83;44036;-24
2021/05/24 16:53:47;;;;;;;0.60;0.47;;;;;;;20.19;38.66;97567.92;3636557;81;44061;-24
2021/05/24 16:58:53;;;;;;;1.10;0.70;;;;;;;19.97;38.10;97569.98;3612546;81;44006;-24
2021/05/24 17:03:59;;;;;;;1.20;0.70;;;;;;;19.90;39.01;97576.66;3707870;78;43371;-24
2021/05/24 17:09:05;;;;;;;0.70;0.70;;;;;;;19.83;39.84;97578.13;3713818;79;43471;-24
2021/05/24 17:14:12;;;;;;;1.47;0.60;;;;;;;19.82;40.51;97578.67;3722303;79;43316;-24
2021/05/24 17:19:17;;;;;;;1.80;0.70;;;;;;;19.66;40.59;97573.43;3721644;79;44040;-23
2021/05/24 17:24:24;;;;;;;1.22;0.75;;;;;;;19.59;41.13;97571.35;3753162;77;43702;-23
2021/05/24 17:29:29;;;;;;;1.17;0.70;;;;;;;19.51;41.08;97572.58;3660314;81;43719;-24
2021/05/24 17:34:36;;;;;;;1.10;0.62;;;;;;;19.47;42.17;97570.54;3668039;79;43358;-24
2021/05/24 17:39:42;;;;;;;2.00;0.65;;;;;;;19.37;42.04;97565.16;3580554;82;44238;-24
2021/05/24 17:44:48;;;;;;;1.12;0.60;;;;;;;19.29;41.54;97577.81;3751562;77;44093;-24
2021/05/24 17:50:02;;;;;;;0.70;0.60;;;;;;;19.18;41.67;97572.64;3752990;77;43385;-24
2021/05/24 17:55:11;;;;;;;1.25;0.60;;;;;;;19.08;41.32;97571.05;3753250;77;44011;-24
2021/05/24 18:00:19;;;;;;;0.88;0.60;;;;;;;19.01;42.11;97572.53;3760220;77;44053;-24
2021/05/24 18:05:30;;;;;;;2.25;0.88;;;;;;;18.92;42.58;97584.84;3752586;77;44190;-25
2021/05/24 18:10:39;;;;;;;2.62;0.90;;;;;;;18.84;43.31;97575.10;3754312;77;43994;-24
2021/05/24 18:15:46;;;;;;;1.87;0.90;;;;;;;18.79;42.98;97578.54;3748908;77;44040;-24
2021/05/24 18:20:53;;;;;;;0.70;0.70;;;;;;;18.66;42.40;97583.39;3757331;77;43412;-22
2021/05/24 18:26:01;;;;;;;1.45;0.88;;;;;;;18.60;43.08;97581.06;3775782;77;43677;-23
2021/05/24 18:31:07;;;;;;;1.15;0.88;;;;;;;18.50;42.62;97577.53;3770199;77;44480;-25
2021/05/24 18:36:14;;;;;;;2.62;1.07;;;;;;;18.41;43.09;97574.30;3775769;77;44031;-24
2021/05/24 18:41:20;;;;;;;1.57;0.90;;;;;;;18.36;43.25;97577.42;3778506;77;44193;-23
2021/05/24 18:46:28;;;;;;;1.85;1.10;;;;;;;18.28;42.83;97579.98;3764797;77;44059;-24
2021/05/24 18:51:36;;;;;;;3.47;1.10;;;;;;;18.21;43.03;97569.68;3761553;77;43337;-24
2021/05/24 18:56:42;;;;;;;2.00;0.80;;;;;;;18.13;43.60;97581.22;3764598;77;44077;-23
2021/05/24 19:01:52;;;;;;;1.35;0.70;;;;;;;18.05;44.20;97581.52;3756915;78;44424;-24
2021/05/24 19:06:57;;;;;;;2.58;0.90;;;;;;;17.98;44.34;97592.54;3756983;77;43991;-24
2021/05/24 19:12:05;;;;;;;2.05;0.88;;;;;;;17.87;42.93;97591.38;3758130;77;43334;-24
2021/05/24 19:17:11;;;;;;;1.55;0.90;;;;;;;17.82;42.37;97603.48;3757804;77;43992;-24
2021/05/24 19:22:17;;;;;;;2.40;0.88;;;;;;;17.74;41.99;97623.41;3765510;77;44107;-24
2021/05/24 19:27:23;;;;;;;1.07;0.70;;;;;;;17.65;43.08;97648.75;3771235;77;344518;-24
2021/05/24 19:32:29;;;;;;;2.90;0.72;;;;;;;17.53;42.59;97641.84;3787094;77;206714;-23
2021/05/24 19:37:37;;;;;;;0.70;0.62;;;;;;;17.44;43.22;97665.83;3789954;77;44545;-24
2021/05/24 19:42:44;;;;;;;2.98;0.80;;;;;;;17.29;43.28;97671.59;3798960;77;43470;-23
2021/05/24 20:26:03;;;;;;;1.02;0.70;;;;;;;16.48;45.46;97717.55;3774215;77;42960;-22
2021/05/24 20:31:09;;;;;;;1.12;0.70;;;;;;;16.11;48.48;97733.59;3751765;77;43237;-23
2021/05/24 20:36:17;;;;;;;0.78;0.70;;;;;;;15.31;60.96;97741.30;3814026;77;44415;-23
2021/05/24 20:41:23;;;;;;;1.72;1.00;;;;;;;14.58;74.01;97744.19;3794748;77;44078;-23
2021/05/24 20:46:29;;;;;;;1.60;0.80;;;;;;;14.57;72.92;97734.38;3784735;77;43372;-23
2021/05/24 20:51:36;;;;;;;1.07;0.90;;;;;;;14.44;76.61;97725.16;3775471;77;44041;-23
2021/05/24 20:56:42;;;;;;;2.08;0.90;;;;;;;14.39;78.90;97711.41;3771410;77;43196;-23
2021/05/24 21:01:49;;;;;;;1.30;0.90;;;;;;;14.43;78.76;97705.06;3774281;77;43694;-23
2021/05/24 21:06:55;;;;;;;3.00;0.80;;;;;;;14.08;83.25;97734.39;3765642;77;43729;-23
2021/05/24 21:12:01;;;;;;;1.52;0.90;;;;;;;13.41;90.60;97746.16;3767802;77;44027;-23
2021/05/24 21:17:07;;;;;;;1.85;0.90;;;;;;;13.46;85.78;97749.62;3765597;77;43725;-23
2021/05/24 21:22:13;;;;;;;2.00;0.90;;;;;;;13.45;87.90;97746.60;3773397;77;43614;-23
2021/05/24 21:27:19;;;;;;;2.65;1.10;;;;;;;13.36;89.51;97744.02;3623678;80;43446;-23
2021/05/24 21:32:37;;;;;;;4.17;1.00;;;;;;;13.31;90.34;97744.28;3763955;77;42785;-23
2021/05/24 21:37:34;;;;;;;2.00;1.00;;;;;;;13.23;90.88;97750.66;3756578;77;42961;-23
2021/05/24 21:42:40;;;;;;;1.45;1.30;;;;;;;13.09;93.91;97755.95;3771921;77;43437;-23
2021/05/24 21:47:46;;;;;;;1.02;0.93;;;;;;;12.98;96.10;97759.70;3759534;77;44009;-23
2021/05/24 21:52:53;;;;;;;1.35;1.10;;;;;;;12.76;99.49;97756.47;3768456;77;44037;-22
2021/05/24 21:58:00;;;;;;;3.47;1.17;;;;;;;12.67;100.00;97758.97;3758661;77;44183;-23
2021/05/24 22:03:07;;;;;;;2.70;1.10;;;;;;;12.64;100.00;97758.82;3766203;77;43763;-23
2021/05/24 22:08:13;;;;;;;4.33;1.40;;;;;;;12.67;99.45;97761.67;3756605;77;43673;-23
2021/05/24 22:13:19;;;;;;;2.10;1.20;;;;;;;12.55;100.00;97759.97;3764320;77;43265;-23
2021/05/24 22:18:25;;;;;;;1.60;1.20;;;;;;;12.60;100.00;97763.45;3759572;77;43790;-24
2021/05/24 22:23:31;;;;;;;3.22;1.20;;;;;;;12.69;99.80;97780.39;3766170;77;44180;-23
2021/05/24 22:28:37;;;;;;;1.45;1.20;;;;;;;12.55;100.00;97768.08;3810457;77;44046;-23
2021/05/24 22:33:43;;;;;;;2.10;1.35;;;;;;;12.67;100.00;97775.69;3791128;77;44213;-23
2021/05/24 22:38:50;;;;;;;1.87;1.45;;;;;;;12.66;100.00;97777.56;3768592;77;43629;-22
2021/05/24 22:43:56;;;;;;;1.57;1.30;;;;;;;12.67;100.00;97779.24;3773656;77;44798;-24
2021/05/24 22:49:02;;;;;;;2.98;1.40;;;;;;;12.66;100.00;97774.01;3759901;77;43357;-23
2021/05/24 22:54:09;;;;;;;1.80;1.10;;;;;;;12.72;100.00;97768.68;3766108;77;43408;-26
2021/05/24 22:59:15;;;;;;;1.35;1.10;;;;;;;12.81;100.00;97751.84;3759235;77;43649;-26
2021/05/24 23:04:21;;;;;;;1.07;0.90;;;;;;;12.91;99.19;97758.28;3766575;77;44227;-26
2021/05/24 23:09:28;;;;;;;2.15;1.17;;;;;;;12.95;95.14;97756.85;3758335;77;42987;-26
2021/05/24 23:14:34;;;;;;;1.15;0.80;;;;;;;12.93;95.59;97751.64;3763409;77;43708;-26
2021/05/24 23:19:40;;;;;;;2.15;1.00;;;;;;;12.97;94.22;97762.91;3766319;77;42961;-26
2021/05/24 23:24:46;;;;;;;1.62;1.00;;;;;;;12.84;97.47;97766.33;3783482;76;44431;-26
2021/05/24 23:29:52;;;;;;;2.42;1.15;;;;;;;12.81;95.63;97761.30;3795163;76;44516;-26
2021/05/24 23:34:58;;;;;;;2.30;1.20;;;;;;;12.81;96.27;97773.46;3788471;76;43694;-26
2021/05/24 23:40:06;;;;;;;1.65;1.00;;;;;;;12.73;97.87;97761.42;3776963;76;43491;-26
2021/05/24 23:45:14;;;;;;;2.70;1.17;;;;;;;12.71;96.42;97770.23;3768163;76;43036;-26
2021/05/24 23:50:19;;;;;;;1.17;0.88;;;;;;;12.64;96.84;97775.03;3777278;76;43972;-26
2021/05/24 23:55:25;;;;;;;1.45;0.95;;;;;;;12.61;96.46;97749.77;3783603;76;43395;-26
